Time,TemperatureF,DewpointF,PressureIn,WindDirection,WindDirectionDegrees,WindSpeedMPH,WindSpeedGustMPH,Humidity,HourlyPrecipIn,Conditions,Clouds,dailyrainin,SoftwareType,DateUTC
2013-01-29 00:00:00,39.2,38.7,30.10,NNW,336,0.0,4.0,98,0.00,,,0.02,meteohub,2013-01-29 05:00:00,
2013-01-29 00:01:00,39.0,38.5,30.10,NNW,336,0.0,4.0,98,0.00,,,0.02,meteohub,2013-01-29 05:01:00,
2013-01-29 00:02:00,39.0,38.5,30.10,NNW,336,0.0,4.0,98,0.00,,,0.02,meteohub,2013-01-29 05:02:00,
2013-01-29 00:04:00,39.0,38.5,30.10,NNW,336,0.0,4.0,98,0.00,,,0.02,meteohub,2013-01-29 05:04:00,
2013-01-29 00:09:00,38.8,38.3,30.11,NNW,336,0.0,4.0,98,0.00,,,0.02,meteohub,2013-01-29 05:09:00,
2013-01-29 00:14:00,38.8,38.3,30.10,NNW,336,0.0,1.0,98,0.00,,,0.02,meteohub,2013-01-29 05:14:00,
2013-01-29 00:20:00,38.7,38.1,30.11,NNW,336,0.0,1.0,98,0.00,,,0.02,meteohub,2013-01-29 05:20:00,
2013-01-29 00:25:00,38.7,38.1,30.10,NNW,336,0.0,1.0,98,0.01,,,0.02,meteohub,2013-01-29 05:25:00,
2013-01-29 00:30:00,38.5,37.9,30.10,NNW,336,0.0,0.0,98,0.01,,,0.03,meteohub,2013-01-29 05:30:00,
2013-01-29 00:36:00,38.3,37.8,30.11,NNW,336,0.0,0.0,98,0.01,,,0.03,meteohub,2013-01-29 05:36:00,
2013-01-29 00:41:00,38.1,37.6,30.11,NNW,336,0.0,0.0,98,0.01,,,0.03,meteohub,2013-01-29 05:41:00,
2013-01-29 00:46:00,38.1,37.6,30.10,NNW,336,0.0,0.0,98,0.01,,,0.03,meteohub,2013-01-29 05:46:00,
2013-01-29 00:51:00,37.9,37.4,30.10,NNW,336,0.0,0.0,98,0.01,,,0.03,meteohub,2013-01-29 05:51:00,
2013-01-29 00:57:00,37.8,37.2,30.10,NNW,336,0.0,0.0,98,0.01,,,0.03,meteohub,2013-01-29 05:57:00,
2013-01-29 01:02:00,37.6,37.0,30.10,NNW,336,0.0,0.0,98,0.01,,,0.03,meteohub,2013-01-29 06:02:00,
2013-01-29 01:07:00,37.6,37.0,30.10,NNW,336,0.0,0.0,98,0.01,,,0.03,meteohub,2013-01-29 06:07:00,
2013-01-29 01:12:00,37.6,37.0,30.10,NNW,336,0.0,0.0,98,0.01,,,0.03,meteohub,2013-01-29 06:12:00,
2013-01-29 01:17:00,37.4,36.9,30.10,NNW,336,0.0,0.0,98,0.01,,,0.03,meteohub,2013-01-29 06:17:00,
2013-01-29 01:22:00,37.2,36.7,30.09,NNW,336,0.0,0.0,98,0.01,,,0.03,meteohub,2013-01-29 06:22:00,
2013-01-29 01:27:00,36.9,36.1,30.09,NNW,336,2.0,2.0,97,0.00,,,0.03,meteohub,2013-01-29 06:27:00,
2013-01-29 01:32:00,36.9,36.3,30.09,NNW,336,0.0,2.0,98,0.00,,,0.03,meteohub,2013-01-29 06:32:00,
2013-01-29 01:37:00,36.7,36.1,30.09,NNW,336,0.0,2.0,98,0.00,,,0.03,meteohub,2013-01-29 06:37:00,
2013-01-29 01:42:00,36.3,35.6,30.09,NNW,336,0.0,2.0,97,0.00,,,0.03,meteohub,2013-01-29 06:42:00,
2013-01-29 01:47:00,36.3,35.6,30.10,NNW,336,0.0,0.0,97,0.00,,,0.03,meteohub,2013-01-29 06:47:00,
2013-01-29 01:52:00,36.3,35.8,30.10,NNW,336,0.0,0.0,98,0.00,,,0.03,meteohub,2013-01-29 06:52:00,
2013-01-29 01:57:00,36.3,35.8,30.09,NNW,336,0.0,0.0,98,0.00,,,0.03,meteohub,2013-01-29 06:57:00,
2013-01-29 02:02:00,36.0,35.4,30.09,NNW,336,0.0,0.0,98,0.00,,,0.03,meteohub,2013-01-29 07:02:00,
2013-01-29 02:07:00,35.8,35.1,30.09,NNW,336,0.0,0.0,97,0.00,,,0.03,meteohub,2013-01-29 07:07:00,
2013-01-29 02:12:00,35.6,34.9,30.09,NNW,336,0.0,0.0,97,0.00,,,0.03,meteohub,2013-01-29 07:12:00,
2013-01-29 02:17:00,35.4,34.9,30.09,NNW,336,0.0,0.0,98,0.00,,,0.03,meteohub,2013-01-29 07:17:00,
2013-01-29 02:23:00,35.2,34.7,30.09,NNW,336,0.0,0.0,98,0.00,,,0.03,meteohub,2013-01-29 07:23:00,
2013-01-29 02:28:00,35.1,34.3,30.09,NNW,336,0.0,0.0,97,0.00,,,0.03,meteohub,2013-01-29 07:28:00,
2013-01-29 02:33:00,35.1,34.3,30.09,NNW,336,0.0,0.0,97,0.00,,,0.03,meteohub,2013-01-29 07:33:00,
2013-01-29 02:39:00,35.2,34.5,30.09,NNW,336,0.0,0.0,97,0.00,,,0.03,meteohub,2013-01-29 07:39:00,
2013-01-29 02:44:00,35.1,34.3,30.09,NNW,336,0.0,0.0,97,0.00,,,0.03,meteohub,2013-01-29 07:44:00,
2013-01-29 02:49:00,34.9,34.3,30.09,NNW,336,0.0,0.0,98,0.00,,,0.03,meteohub,2013-01-29 07:49:00,
2013-01-29 02:55:00,34.9,34.3,30.09,NNW,336,0.0,0.0,98,0.00,,,0.03,meteohub,2013-01-29 07:55:00,
2013-01-29 03:00:00,34.9,34.3,30.09,NNW,336,0.0,0.0,98,0.00,,,0.03,meteohub,2013-01-29 08:00:00,
2013-01-29 03:05:00,34.7,34.0,30.08,NNW,336,0.0,0.0,97,0.00,,,0.03,meteohub,2013-01-29 08:05:00,
2013-01-29 03:10:00,34.5,33.8,30.08,NNW,336,0.0,0.0,97,0.00,,,0.03,meteohub,2013-01-29 08:10:00,
2013-01-29 03:16:00,34.5,34.0,30.08,NNW,336,0.0,0.0,98,0.00,,,0.03,meteohub,2013-01-29 08:16:00,
2013-01-29 03:21:00,34.5,34.0,30.08,NNW,336,0.0,0.0,98,0.00,,,0.03,meteohub,2013-01-29 08:21:00,
2013-01-29 03:26:00,34.3,33.8,30.07,NNW,336,0.0,0.0,98,0.00,,,0.03,meteohub,2013-01-29 08:26:00,
2013-01-29 03:32:00,34.3,33.8,30.08,NNW,336,0.0,0.0,98,0.00,,,0.03,meteohub,2013-01-29 08:32:00,
2013-01-29 03:37:00,34.3,33.8,30.08,NNW,336,0.0,0.0,98,0.00,,,0.03,meteohub,2013-01-29 08:37:00,
2013-01-29 03:42:00,34.3,33.8,30.07,NNW,336,0.0,0.0,98,0.00,,,0.03,meteohub,2013-01-29 08:42:00,
2013-01-29 03:47:00,34.3,33.8,30.08,NNW,336,0.0,0.0,98,0.00,,,0.03,meteohub,2013-01-29 08:47:00,
2013-01-29 03:52:00,34.3,33.8,30.07,NNW,336,0.0,0.0,98,0.00,,,0.03,meteohub,2013-01-29 08:52:00,
2013-01-29 03:57:00,34.2,33.6,30.07,NNW,336,0.0,0.0,98,0.00,,,0.03,meteohub,2013-01-29 08:57:00,
2013-01-29 04:02:00,34.3,33.8,30.07,NNW,336,0.0,0.0,98,0.00,,,0.03,meteohub,2013-01-29 09:02:00,
2013-01-29 04:07:00,34.3,33.8,30.07,NNW,336,0.0,0.0,98,0.00,,,0.03,meteohub,2013-01-29 09:07:00,
2013-01-29 04:12:00,34.3,33.8,30.07,NNW,336,0.0,0.0,98,0.00,,,0.03,meteohub,2013-01-29 09:12:00,
2013-01-29 04:17:00,34.5,34.0,30.07,NNW,336,0.0,0.0,98,0.00,,,0.03,meteohub,2013-01-29 09:17:00,
2013-01-29 04:23:00,34.3,33.8,30.06,NNW,336,0.0,0.0,98,0.00,,,0.03,meteohub,2013-01-29 09:23:00,
2013-01-29 04:28:00,34.3,33.8,30.06,NNW,336,0.0,0.0,98,0.00,,,0.03,meteohub,2013-01-29 09:28:00,
2013-01-29 04:33:00,34.3,33.8,30.06,NNW,336,0.0,0.0,98,0.00,,,0.03,meteohub,2013-01-29 09:33:00,
2013-01-29 04:39:00,34.2,33.6,30.06,NNW,336,0.0,0.0,98,0.00,,,0.03,meteohub,2013-01-29 09:39:00,
2013-01-29 04:44:00,34.2,33.6,30.06,NNW,336,0.0,0.0,98,0.00,,,0.03,meteohub,2013-01-29 09:44:00,
2013-01-29 04:49:00,34.5,34.0,30.05,NNW,336,0.0,0.0,98,0.00,,,0.03,meteohub,2013-01-29 09:49:00,
2013-01-29 04:54:00,34.2,33.6,30.06,NNW,336,0.0,0.0,98,0.00,,,0.03,meteohub,2013-01-29 09:54:00,
2013-01-29 05:00:00,34.2,33.6,30.05,NNW,336,0.0,0.0,98,0.00,,,0.03,meteohub,2013-01-29 10:00:00,
2013-01-29 05:05:00,34.2,33.6,30.05,NNW,336,0.0,0.0,98,0.00,,,0.03,meteohub,2013-01-29 10:05:00,
2013-01-29 05:10:00,34.2,33.6,30.05,NNW,336,0.0,2.0,98,0.00,,,0.03,meteohub,2013-01-29 10:10:00,
2013-01-29 05:16:00,34.2,33.6,30.05,NNW,336,0.0,2.0,98,0.00,,,0.03,meteohub,2013-01-29 10:16:00,
2013-01-29 05:21:00,34.2,33.6,30.06,NNW,336,1.0,1.0,98,0.00,,,0.03,meteohub,2013-01-29 10:21:00,
2013-01-29 05:26:00,34.5,34.0,30.05,SSW,197,3.0,3.0,98,0.00,,,0.03,meteohub,2013-01-29 10:26:00,
2013-01-29 05:31:00,34.9,34.3,30.05,SSW,197,0.0,3.0,98,0.00,,,0.03,meteohub,2013-01-29 10:31:00,
2013-01-29 05:37:00,35.1,34.5,30.05,SSW,197,0.0,3.0,98,0.00,,,0.03,meteohub,2013-01-29 10:37:00,
2013-01-29 05:42:00,34.9,34.3,30.05,SSW,197,0.0,3.0,98,0.00,,,0.03,meteohub,2013-01-29 10:42:00,
2013-01-29 05:47:00,34.7,34.2,30.04,SSW,197,0.0,3.0,98,0.00,,,0.03,meteohub,2013-01-29 10:47:00,
2013-01-29 05:52:00,34.5,34.0,30.04,SSW,197,0.0,2.0,98,0.00,,,0.03,meteohub,2013-01-29 10:52:00,
2013-01-29 05:57:00,34.9,34.3,30.04,SSW,197,0.0,2.0,98,0.00,,,0.03,meteohub,2013-01-29 10:57:00,
2013-01-29 06:03:00,35.1,34.5,30.04,SSW,197,0.0,2.0,98,0.00,,,0.03,meteohub,2013-01-29 11:03:00,
2013-01-29 06:08:00,35.2,34.7,30.04,SSW,197,0.0,2.0,98,0.00,,,0.03,meteohub,2013-01-29 11:08:00,
2013-01-29 06:13:00,35.2,34.7,30.03,SSW,197,0.0,4.0,98,0.00,,,0.03,meteohub,2013-01-29 11:13:00,
2013-01-29 06:19:00,35.2,34.7,30.04,SSW,197,1.0,4.0,98,0.00,,,0.03,meteohub,2013-01-29 11:19:00,
2013-01-29 06:24:00,35.2,34.7,30.04,SSW,197,0.0,2.0,98,0.00,,,0.03,meteohub,2013-01-29 11:24:00,
2013-01-29 06:29:00,35.6,35.1,30.03,SSW,192,3.0,3.0,98,0.00,,,0.03,meteohub,2013-01-29 11:29:00,
2013-01-29 06:35:00,35.8,35.2,30.03,SSW,192,0.0,4.0,98,0.00,,,0.03,meteohub,2013-01-29 11:35:00,
2013-01-29 06:40:00,36.1,35.6,30.03,SSW,204,4.0,4.0,98,0.00,,,0.03,meteohub,2013-01-29 11:40:00,
2013-01-29 06:45:00,36.3,35.8,30.03,SSW,204,1.0,4.0,98,0.00,,,0.03,meteohub,2013-01-29 11:45:00,
2013-01-29 06:51:00,36.3,35.8,30.03,SSW,210,3.0,4.0,98,0.00,,,0.03,meteohub,2013-01-29 11:51:00,
2013-01-29 06:56:00,36.7,36.1,30.02,SSW,208,3.0,4.0,98,0.00,,,0.03,meteohub,2013-01-29 11:56:00,
2013-01-29 07:01:00,36.9,36.3,30.02,SSW,207,6.0,6.0,98,0.00,,,0.03,meteohub,2013-01-29 12:01:00,
2013-01-29 07:06:00,37.0,36.5,30.02,SSW,205,2.0,6.0,98,0.00,,,0.03,meteohub,2013-01-29 12:06:00,
2013-01-29 07:12:00,37.0,36.5,30.01,South,186,3.0,6.0,98,0.00,,,0.03,meteohub,2013-01-29 12:12:00,
2013-01-29 07:17:00,37.2,36.7,30.02,SSW,200,3.0,6.0,98,0.00,,,0.03,meteohub,2013-01-29 12:17:00,
2013-01-29 07:22:00,37.2,36.7,30.02,SSW,200,2.0,5.0,98,0.00,,,0.03,meteohub,2013-01-29 12:22:00,
2013-01-29 07:27:00,37.2,36.7,30.02,SSW,200,0.0,4.0,98,0.00,,,0.03,meteohub,2013-01-29 12:27:00,
2013-01-29 07:32:00,37.0,36.5,30.01,SSW,202,3.0,4.0,98,0.00,,,0.03,meteohub,2013-01-29 12:32:00,
2013-01-29 07:37:00,37.2,36.7,30.01,SSW,202,2.0,5.0,98,0.00,,,0.03,meteohub,2013-01-29 12:37:00,
2013-01-29 07:42:00,37.4,36.9,30.01,SSW,211,0.0,6.0,98,0.00,,,0.03,meteohub,2013-01-29 12:42:00,
2013-01-29 07:47:00,37.6,37.0,30.00,SSW,198,3.0,6.0,98,0.00,,,0.03,meteohub,2013-01-29 12:47:00,
2013-01-29 07:52:00,37.6,37.0,30.01,SSW,211,3.0,6.0,98,0.00,,,0.03,meteohub,2013-01-29 12:52:00,
2013-01-29 07:57:00,37.8,37.2,30.01,South,190,4.0,7.0,98,0.00,,,0.03,meteohub,2013-01-29 12:57:00,
2013-01-29 08:02:00,37.8,37.2,30.01,SSW,211,5.0,8.0,98,0.00,,,0.03,meteohub,2013-01-29 13:02:00,
2013-01-29 08:07:00,37.4,36.9,30.02,WNW,285,0.0,8.0,98,0.00,,,0.03,meteohub,2013-01-29 13:07:00,
2013-01-29 08:12:00,37.2,36.7,30.02,WNW,285,0.0,8.0,98,0.00,,,0.03,meteohub,2013-01-29 13:12:00,
2013-01-29 08:17:00,37.2,36.7,30.02,WNW,285,0.0,7.0,98,0.00,,,0.03,meteohub,2013-01-29 13:17:00,
2013-01-29 08:22:00,37.4,36.9,30.02,WNW,285,0.0,4.0,98,0.00,,,0.03,meteohub,2013-01-29 13:22:00,
2013-01-29 08:28:00,37.2,36.7,30.01,WNW,285,0.0,1.0,98,0.00,,,0.03,meteohub,2013-01-29 13:28:00,
2013-01-29 08:33:00,37.0,36.5,30.01,WNW,285,0.0,1.0,98,0.00,,,0.03,meteohub,2013-01-29 13:33:00,
2013-01-29 08:38:00,36.9,36.3,30.01,WNW,285,0.0,0.0,98,0.00,,,0.03,meteohub,2013-01-29 13:38:00,
2013-01-29 08:44:00,36.3,35.8,30.00,WNW,285,0.0,0.0,98,0.00,,,0.03,meteohub,2013-01-29 13:44:00,
2013-01-29 08:49:00,36.0,35.4,30.00,WNW,285,0.0,1.0,98,0.00,,,0.03,meteohub,2013-01-29 13:49:00,
2013-01-29 08:54:00,36.0,35.4,29.99,WNW,285,0.0,1.0,98,0.00,,,0.03,meteohub,2013-01-29 13:54:00,
2013-01-29 08:59:00,36.0,35.4,29.99,WNW,285,0.0,2.0,98,0.00,,,0.03,meteohub,2013-01-29 13:59:00,
2013-01-29 09:07:00,36.1,35.6,29.98,SW,215,3.0,3.0,98,0.00,,,0.03,meteohub,2013-01-29 14:07:00,
2013-01-29 09:12:00,37.2,36.7,29.98,SW,215,1.0,2.0,98,0.00,,,0.03,meteohub,2013-01-29 14:12:00,
2013-01-29 09:17:00,38.5,37.9,29.98,SSW,213,3.0,5.0,98,0.00,,,0.03,meteohub,2013-01-29 14:17:00,
2013-01-29 09:22:00,38.8,38.3,29.98,SSW,198,3.0,5.0,98,0.00,,,0.03,meteohub,2013-01-29 14:22:00,
2013-01-29 09:27:00,39.0,38.5,29.98,SSW,204,1.0,6.0,98,0.00,,,0.03,meteohub,2013-01-29 14:27:00,
2013-01-29 09:32:00,38.8,38.3,29.97,SSW,206,3.0,6.0,98,0.00,,,0.03,meteohub,2013-01-29 14:32:00,
2013-01-29 09:37:00,39.6,39.0,29.97,SSW,213,6.0,6.0,98,0.00,,,0.03,meteohub,2013-01-29 14:37:00,
2013-01-29 09:42:00,40.6,40.1,29.97,SSW,205,5.0,7.0,98,0.00,,,0.03,meteohub,2013-01-29 14:42:00,
2013-01-29 09:47:00,41.4,40.8,29.96,SSW,194,4.0,7.0,98,0.00,,,0.03,meteohub,2013-01-29 14:47:00,
2013-01-29 09:53:00,42.1,41.5,29.96,South,186,4.0,7.0,98,0.00,,,0.03,meteohub,2013-01-29 14:53:00,
2013-01-29 09:59:00,43.3,43.2,29.96,SSW,209,6.0,10.0,99,0.00,,,0.03,meteohub,2013-01-29 14:59:00,
2013-01-29 10:04:00,43.7,43.5,29.96,SW,226,3.0,10.0,99,0.00,,,0.03,meteohub,2013-01-29 15:04:00,
2013-01-29 10:09:00,44.1,43.9,29.96,SSW,202,2.0,10.0,99,0.00,,,0.03,meteohub,2013-01-29 15:09:00,
2013-01-29 10:15:00,44.4,44.2,29.96,SW,223,3.0,11.0,99,0.00,,,0.03,meteohub,2013-01-29 15:15:00,
2013-01-29 10:20:00,45.0,44.8,29.95,SW,217,5.0,11.0,99,0.00,,,0.03,meteohub,2013-01-29 15:20:00,
2013-01-29 10:25:00,45.1,45.0,29.95,SSW,212,5.0,13.0,99,0.00,,,0.03,meteohub,2013-01-29 15:25:00,
2013-01-29 10:31:00,45.7,45.5,29.95,SSW,198,5.0,13.0,99,0.00,,,0.03,meteohub,2013-01-29 15:31:00,
2013-01-29 10:36:00,45.9,45.7,29.95,SW,229,6.0,13.0,99,0.00,,,0.03,meteohub,2013-01-29 15:36:00,
2013-01-29 10:41:00,46.2,46.0,29.95,SSW,207,7.0,13.0,99,0.00,,,0.03,meteohub,2013-01-29 15:41:00,
2013-01-29 10:47:00,46.4,46.2,29.95,SSW,205,4.0,12.0,99,0.00,,,0.03,meteohub,2013-01-29 15:47:00,
2013-01-29 10:52:00,46.8,46.6,29.96,SSW,212,4.0,12.0,99,0.00,,,0.03,meteohub,2013-01-29 15:52:00,
2013-01-29 10:57:00,46.9,46.8,29.95,SW,217,6.0,11.0,99,0.00,,,0.03,meteohub,2013-01-29 15:57:00,
2013-01-29 11:02:00,47.3,47.1,29.95,SSW,198,3.0,11.0,99,0.00,,,0.03,meteohub,2013-01-29 16:02:00,
2013-01-29 11:07:00,47.5,47.3,29.96,SSW,207,7.0,12.0,99,0.00,,,0.03,meteohub,2013-01-29 16:07:00,
2013-01-29 11:12:00,47.5,47.3,29.95,SSW,198,1.0,12.0,99,0.00,,,0.03,meteohub,2013-01-29 16:12:00,
2013-01-29 11:17:00,47.8,47.7,29.95,SSW,205,5.0,12.0,99,0.00,,,0.03,meteohub,2013-01-29 16:17:00,
2013-01-29 11:22:00,47.8,47.7,29.95,SW,219,3.0,12.0,99,0.00,,,0.03,meteohub,2013-01-29 16:22:00,
2013-01-29 11:27:00,48.0,47.8,29.96,West,265,0.0,9.0,99,0.00,,,0.03,meteohub,2013-01-29 16:27:00,
2013-01-29 11:32:00,47.7,47.5,29.96,SW,221,0.0,9.0,99,0.00,,,0.03,meteohub,2013-01-29 16:32:00,
2013-01-29 11:37:00,47.7,47.5,29.97,SSW,209,0.0,9.0,99,0.00,,,0.03,meteohub,2013-01-29 16:37:00,
2013-01-29 11:42:00,47.8,47.7,29.96,SSW,207,3.0,9.0,99,0.00,,,0.03,meteohub,2013-01-29 16:42:00,
2013-01-29 11:47:00,47.5,47.3,29.96,SSW,209,3.0,4.0,99,0.00,,,0.03,meteohub,2013-01-29 16:47:00,
2013-01-29 11:52:00,47.7,47.5,29.96,SSW,203,3.0,4.0,99,0.00,,,0.03,meteohub,2013-01-29 16:52:00,
2013-01-29 11:57:00,47.8,47.7,29.96,SSW,211,4.0,6.0,99,0.00,,,0.03,meteohub,2013-01-29 16:57:00,
2013-01-29 12:02:00,48.2,48.0,29.95,SW,225,3.0,6.0,99,0.00,,,0.03,meteohub,2013-01-29 17:02:00,
2013-01-29 12:07:00,48.7,48.6,29.95,SSW,213,2.0,7.0,99,0.00,,,0.03,meteohub,2013-01-29 17:07:00,
2013-01-29 12:12:00,48.9,48.7,29.94,SSW,211,3.0,7.0,99,0.00,,,0.03,meteohub,2013-01-29 17:12:00,
2013-01-29 12:17:00,49.1,48.9,29.94,SSW,212,4.0,7.0,99,0.00,,,0.03,meteohub,2013-01-29 17:17:00,
2013-01-29 12:22:00,48.7,48.6,29.94,SW,214,3.0,7.0,99,0.00,,,0.03,meteohub,2013-01-29 17:22:00,
2013-01-29 12:27:00,48.9,48.7,29.93,SSW,209,3.0,7.0,99,0.00,,,0.03,meteohub,2013-01-29 17:27:00,
2013-01-29 12:32:00,49.6,49.5,29.93,South,190,2.0,7.0,99,0.00,,,0.03,meteohub,2013-01-29 17:32:00,
2013-01-29 12:38:00,49.5,49.3,29.92,South,191,4.0,9.0,99,0.00,,,0.03,meteohub,2013-01-29 17:38:00,
2013-01-29 12:43:00,49.8,49.5,29.92,SSW,203,4.0,9.0,99,0.00,,,0.03,meteohub,2013-01-29 17:43:00,
2013-01-29 12:48:00,50.4,50.0,29.92,SSW,211,5.0,8.0,99,0.00,,,0.03,meteohub,2013-01-29 17:48:00,
2013-01-29 12:53:00,50.4,50.0,29.91,SW,215,7.0,9.0,99,0.00,,,0.03,meteohub,2013-01-29 17:53:00,
2013-01-29 12:59:00,50.5,50.2,29.91,SSW,208,2.0,9.0,99,0.00,,,0.03,meteohub,2013-01-29 17:59:00,
2013-01-29 13:04:00,50.7,50.4,29.91,WSW,252,1.0,9.0,99,0.00,,,0.03,meteohub,2013-01-29 18:04:00,
2013-01-29 13:09:00,50.5,50.2,29.91,SSW,209,1.0,12.0,99,0.00,,,0.03,meteohub,2013-01-29 18:09:00,
2013-01-29 13:15:00,50.7,50.4,29.91,SSW,200,2.0,12.0,99,0.00,,,0.03,meteohub,2013-01-29 18:15:00,
2013-01-29 13:20:00,50.9,50.5,29.91,SSW,206,2.0,9.0,99,0.00,,,0.03,meteohub,2013-01-29 18:20:00,
2013-01-29 13:25:00,51.1,50.7,29.91,SSW,211,4.0,7.0,99,0.00,,,0.03,meteohub,2013-01-29 18:25:00,
2013-01-29 13:30:00,51.1,50.7,29.91,SSW,199,0.0,7.0,99,0.00,,,0.03,meteohub,2013-01-29 18:30:00,
2013-01-29 13:36:00,51.3,50.9,29.91,SW,215,2.0,8.0,99,0.00,,,0.03,meteohub,2013-01-29 18:36:00,
2013-01-29 13:41:00,51.4,51.1,29.91,SSW,210,0.0,8.0,99,0.00,,,0.03,meteohub,2013-01-29 18:41:00,
2013-01-29 13:46:00,51.3,50.9,29.91,SSW,212,1.0,6.0,99,0.00,,,0.03,meteohub,2013-01-29 18:46:00,
2013-01-29 13:52:00,50.7,50.4,29.91,SSW,211,0.0,6.0,99,0.00,,,0.03,meteohub,2013-01-29 18:52:00,
2013-01-29 13:57:00,50.5,50.2,29.91,SW,214,0.0,5.0,99,0.00,,,0.03,meteohub,2013-01-29 18:57:00,
2013-01-29 14:02:00,50.5,50.2,29.91,SW,214,0.0,5.0,99,0.00,,,0.03,meteohub,2013-01-29 19:02:00,
2013-01-29 14:07:00,50.5,50.2,29.91,SW,214,1.0,4.0,99,0.00,,,0.03,meteohub,2013-01-29 19:07:00,
2013-01-29 14:12:00,50.0,49.6,29.90,South,187,0.0,4.0,99,0.00,,,0.03,meteohub,2013-01-29 19:12:00,
2013-01-29 14:17:00,49.6,49.5,29.90,South,187,0.0,4.0,99,0.00,,,0.03,meteohub,2013-01-29 19:17:00,
2013-01-29 14:22:00,49.3,49.1,29.90,SW,220,2.0,4.0,99,0.00,,,0.03,meteohub,2013-01-29 19:22:00,
2013-01-29 14:27:00,48.9,48.7,29.89,SSW,204,2.0,4.0,99,0.00,,,0.03,meteohub,2013-01-29 19:27:00,
2013-01-29 14:32:00,48.9,48.7,29.89,SW,223,5.0,5.0,99,0.00,,,0.03,meteohub,2013-01-29 19:32:00,
2013-01-29 14:37:00,49.5,48.9,29.89,SW,221,4.0,5.0,98,0.00,,,0.03,meteohub,2013-01-29 19:37:00,
2013-01-29 14:42:00,49.5,49.3,29.89,SSW,205,3.0,5.0,99,0.00,,,0.03,meteohub,2013-01-29 19:42:00,
2013-01-29 14:47:00,50.7,50.4,29.89,SW,217,2.0,8.0,99,0.00,,,0.03,meteohub,2013-01-29 19:47:00,
2013-01-29 14:52:00,51.4,51.1,29.88,SSW,199,3.0,8.0,99,0.00,,,0.03,meteohub,2013-01-29 19:52:00,
2013-01-29 14:57:00,51.6,51.3,29.89,SSW,200,3.0,8.0,99,0.00,,,0.03,meteohub,2013-01-29 19:57:00,
2013-01-29 15:02:00,51.4,51.1,29.89,South,189,4.0,8.0,99,0.00,,,0.03,meteohub,2013-01-29 20:02:00,
2013-01-29 15:07:00,52.2,51.8,29.89,SSW,204,3.0,8.0,99,0.00,,,0.03,meteohub,2013-01-29 20:07:00,
2013-01-29 15:13:00,52.0,51.6,29.89,SW,228,6.0,8.0,99,0.00,,,0.03,meteohub,2013-01-29 20:13:00,
2013-01-29 15:18:00,52.0,51.6,29.89,SW,217,5.0,8.0,99,0.00,,,0.03,meteohub,2013-01-29 20:18:00,
2013-01-29 15:23:00,52.2,51.8,29.89,SSW,213,0.0,8.0,99,0.00,,,0.03,meteohub,2013-01-29 20:23:00,
2013-01-29 15:28:00,52.2,51.8,29.89,SSW,194,4.0,8.0,99,0.00,,,0.03,meteohub,2013-01-29 20:28:00,
2013-01-29 15:34:00,52.0,51.6,29.89,SW,221,3.0,6.0,99,0.00,,,0.03,meteohub,2013-01-29 20:34:00,
2013-01-29 15:39:00,51.8,51.3,29.89,South,190,0.0,6.0,98,0.00,,,0.03,meteohub,2013-01-29 20:39:00,
2013-01-29 15:44:00,51.3,50.7,29.89,SSW,212,1.0,6.0,98,0.00,,,0.03,meteohub,2013-01-29 20:44:00,
2013-01-29 15:50:00,50.7,50.2,29.89,SSW,212,1.0,6.0,98,0.00,,,0.03,meteohub,2013-01-29 20:50:00,
2013-01-29 15:55:00,50.4,49.8,29.89,SSW,200,3.0,6.0,98,0.00,,,0.03,meteohub,2013-01-29 20:55:00,
2013-01-29 16:00:00,50.4,49.8,29.88,SSW,204,1.0,6.0,98,0.00,,,0.03,meteohub,2013-01-29 21:00:00,
2013-01-29 16:06:00,50.7,50.2,29.88,SW,221,0.0,6.0,98,0.00,,,0.03,meteohub,2013-01-29 21:06:00,
2013-01-29 16:11:00,50.5,50.0,29.88,South,182,0.0,6.0,98,0.00,,,0.03,meteohub,2013-01-29 21:11:00,
2013-01-29 16:16:00,50.5,50.0,29.88,SSW,196,4.0,7.0,98,0.00,,,0.03,meteohub,2013-01-29 21:16:00,
2013-01-29 16:22:00,50.5,50.0,29.88,SSW,197,0.0,7.0,98,0.00,,,0.03,meteohub,2013-01-29 21:22:00,
2013-01-29 16:27:00,50.7,50.2,29.88,SW,217,2.0,7.0,98,0.00,,,0.03,meteohub,2013-01-29 21:27:00,
2013-01-29 16:32:00,50.7,50.2,29.88,SSW,192,3.0,7.0,98,0.00,,,0.04,meteohub,2013-01-29 21:32:00,
2013-01-29 16:37:00,50.9,50.4,29.88,WSW,242,1.0,6.0,98,0.01,,,0.04,meteohub,2013-01-29 21:37:00,
2013-01-29 16:42:00,51.1,50.5,29.88,SW,215,4.0,6.0,98,0.01,,,0.05,meteohub,2013-01-29 21:42:00,
2013-01-29 16:47:00,51.4,50.9,29.88,SW,215,2.0,6.0,98,0.02,,,0.05,meteohub,2013-01-29 21:47:00,
2013-01-29 16:52:00,50.7,50.2,29.87,SW,217,0.0,6.0,98,0.02,,,0.05,meteohub,2013-01-29 21:52:00,
2013-01-29 16:58:00,50.7,50.2,29.88,SW,217,0.0,6.0,98,0.02,,,0.05,meteohub,2013-01-29 21:58:00,
2013-01-29 17:03:00,50.4,49.8,29.88,SW,225,1.0,6.0,98,0.02,,,0.05,meteohub,2013-01-29 22:03:00,
2013-01-29 17:08:00,49.6,48.7,29.87,South,184,3.0,5.0,97,0.02,,,0.05,meteohub,2013-01-29 22:08:00,
2013-01-29 17:14:00,50.5,50.0,29.88,SSW,196,4.0,8.0,98,0.02,,,0.05,meteohub,2013-01-29 22:14:00,
2013-01-29 17:19:00,51.4,50.9,29.87,SSW,198,5.0,8.0,98,0.03,,,0.06,meteohub,2013-01-29 22:19:00,
2013-01-29 17:24:00,52.0,51.4,29.87,SW,228,4.0,8.0,98,0.04,,,0.07,meteohub,2013-01-29 22:24:00,
2013-01-29 17:29:00,52.2,51.6,29.87,SSW,210,2.0,8.0,98,0.04,,,0.07,meteohub,2013-01-29 22:29:00,
2013-01-29 17:35:00,52.3,51.8,29.88,SW,225,0.0,7.0,98,0.03,,,0.07,meteohub,2013-01-29 22:35:00,
2013-01-29 17:40:00,52.2,51.6,29.87,SSW,205,4.0,7.0,98,0.03,,,0.07,meteohub,2013-01-29 22:40:00,
2013-01-29 17:45:00,52.2,51.6,29.88,SSW,208,6.0,7.0,98,0.03,,,0.08,meteohub,2013-01-29 22:45:00,
2013-01-29 17:51:00,52.2,51.6,29.88,West,269,0.0,7.0,98,0.03,,,0.08,meteohub,2013-01-29 22:51:00,
2013-01-29 17:56:00,52.0,51.4,29.87,South,185,2.0,11.0,98,0.03,,,0.08,meteohub,2013-01-29 22:56:00,
2013-01-29 18:01:00,51.8,51.3,29.87,SW,218,5.0,11.0,98,0.03,,,0.09,meteohub,2013-01-29 23:01:00,
2013-01-29 18:06:00,52.5,52.0,29.87,SSW,198,6.0,9.0,98,0.04,,,0.09,meteohub,2013-01-29 23:06:00,
2013-01-29 18:12:00,52.9,52.3,29.87,SSW,192,3.0,9.0,98,0.04,,,0.10,meteohub,2013-01-29 23:12:00,
2013-01-29 18:17:00,52.5,52.0,29.86,SSW,213,5.0,10.0,98,0.04,,,0.10,meteohub,2013-01-29 23:17:00,
2013-01-29 18:22:00,52.5,52.0,29.86,SSW,194,2.0,10.0,98,0.04,,,0.10,meteohub,2013-01-29 23:22:00,
2013-01-29 18:27:00,52.2,51.6,29.85,SSW,208,0.0,9.0,98,0.03,,,0.10,meteohub,2013-01-29 23:27:00,
2013-01-29 18:32:00,52.3,51.8,29.85,SW,227,0.0,9.0,98,0.03,,,0.11,meteohub,2013-01-29 23:32:00,
2013-01-29 18:37:00,51.6,51.1,29.85,South,171,1.0,7.0,98,0.04,,,0.11,meteohub,2013-01-29 23:37:00,
2013-01-29 18:42:00,51.4,50.9,29.85,SSE,161,0.0,7.0,98,0.04,,,0.11,meteohub,2013-01-29 23:42:00,
2013-01-29 18:48:00,51.1,50.5,29.85,SSE,161,0.0,6.0,98,0.03,,,0.11,meteohub,2013-01-29 23:48:00,
2013-01-29 18:53:00,50.7,50.2,29.85,SSE,161,0.0,5.0,98,0.02,,,0.11,meteohub,2013-01-29 23:53:00,
2013-01-29 18:58:00,50.7,50.2,29.85,SSE,161,0.0,5.0,98,0.02,,,0.11,meteohub,2013-01-29 23:58:00,
2013-01-29 19:04:00,50.4,49.8,29.86,SSE,161,0.0,5.0,98,0.02,,,0.11,meteohub,2013-01-30 00:04:00,
2013-01-29 19:09:00,49.8,49.3,29.85,SSE,161,0.0,2.0,98,0.02,,,0.11,meteohub,2013-01-30 00:09:00,
2013-01-29 19:15:00,48.9,48.4,29.85,SSE,161,0.0,2.0,98,0.01,,,0.00,meteohub,2013-01-30 00:15:00,
2013-01-29 19:20:00,47.8,46.9,29.84,SSE,161,0.0,2.0,97,0.01,,,0.00,meteohub,2013-01-30 00:20:00,
2013-01-29 19:25:00,47.5,46.8,29.83,SSE,161,0.0,1.0,97,0.02,,,0.01,meteohub,2013-01-30 00:25:00,
2013-01-29 19:31:00,47.7,47.1,29.83,SSE,161,0.0,1.0,98,0.02,,,0.01,meteohub,2013-01-30 00:31:00,
2013-01-29 19:36:00,47.3,46.8,29.83,SSE,161,0.0,0.0,98,0.01,,,0.01,meteohub,2013-01-30 00:36:00,
2013-01-29 19:41:00,46.9,46.2,29.83,SSE,161,1.0,0.0,97,0.01,,,0.01,meteohub,2013-01-30 00:41:00,
2013-01-29 19:46:00,46.6,45.9,29.84,SSE,161,1.0,2.0,97,0.01,,,0.01,meteohub,2013-01-30 00:46:00,
2013-01-29 19:52:00,46.2,45.7,29.83,SSE,161,0.0,2.0,98,0.01,,,0.01,meteohub,2013-01-30 00:52:00,
2013-01-29 19:57:00,46.0,45.3,29.83,SSE,161,0.0,2.0,97,0.01,,,0.01,meteohub,2013-01-30 00:57:00,
2013-01-29 20:02:00,45.5,44.8,29.83,SSE,161,0.0,2.0,97,0.01,,,0.01,meteohub,2013-01-30 01:02:00,
2013-01-29 20:07:00,45.1,44.4,29.83,SSE,161,0.0,0.0,97,0.01,,,0.01,meteohub,2013-01-30 01:07:00,
2013-01-29 20:12:00,44.8,44.1,29.83,SSE,161,1.0,0.0,97,0.01,,,0.01,meteohub,2013-01-30 01:12:00,
2013-01-29 20:17:00,44.1,43.3,29.82,SSE,161,0.0,2.0,97,0.01,,,0.01,meteohub,2013-01-30 01:17:00,
2013-01-29 20:22:00,43.7,43.0,29.81,SSE,161,0.0,2.0,97,0.01,,,0.01,meteohub,2013-01-30 01:22:00,
2013-01-29 20:27:00,43.9,43.3,29.81,SW,223,1.0,4.0,98,0.00,,,0.01,meteohub,2013-01-30 01:27:00,
2013-01-29 20:32:00,43.3,42.6,29.81,SW,223,3.0,4.0,97,0.00,,,0.01,meteohub,2013-01-30 01:32:00,
2013-01-29 20:37:00,43.5,43.0,29.81,SW,218,2.0,4.0,98,0.00,,,0.01,meteohub,2013-01-30 01:37:00,
2013-01-29 20:42:00,43.9,43.3,29.81,South,190,1.0,4.0,98,0.00,,,0.01,meteohub,2013-01-30 01:42:00,
2013-01-29 20:47:00,43.3,42.8,29.81,South,185,0.0,5.0,98,0.00,,,0.01,meteohub,2013-01-30 01:47:00,
2013-01-29 20:52:00,43.0,42.4,29.81,South,185,0.0,5.0,98,0.00,,,0.01,meteohub,2013-01-30 01:52:00,
2013-01-29 20:57:00,42.8,42.3,29.81,South,185,0.0,3.0,98,0.00,,,0.01,meteohub,2013-01-30 01:57:00,
2013-01-29 21:02:00,43.3,42.8,29.81,SSW,193,1.0,3.0,98,0.00,,,0.01,meteohub,2013-01-30 02:02:00,
2013-01-29 21:07:00,43.5,43.0,29.81,SSW,193,1.0,3.0,98,0.00,,,0.01,meteohub,2013-01-30 02:07:00,
2013-01-29 21:12:00,43.3,42.8,29.80,SSW,197,1.0,3.0,98,0.00,,,0.01,meteohub,2013-01-30 02:12:00,
2013-01-29 21:17:00,43.9,43.3,29.80,SSW,199,2.0,4.0,98,0.00,,,0.01,meteohub,2013-01-30 02:17:00,
2013-01-29 21:22:00,44.1,43.5,29.80,SSW,199,0.0,4.0,98,0.00,,,0.01,meteohub,2013-01-30 02:22:00,
2013-01-29 21:27:00,43.5,43.0,29.79,SSW,199,0.0,4.0,98,0.00,,,0.01,meteohub,2013-01-30 02:27:00,
2013-01-29 21:32:00,42.8,42.3,29.79,SSW,199,0.0,4.0,98,0.00,,,0.01,meteohub,2013-01-30 02:32:00,
2013-01-29 21:37:00,43.9,43.3,29.78,SSW,199,1.0,3.0,98,0.00,,,0.01,meteohub,2013-01-30 02:37:00,
2013-01-29 21:42:00,43.5,43.0,29.78,SSW,199,0.0,3.0,98,0.00,,,0.01,meteohub,2013-01-30 02:42:00,
2013-01-29 21:47:00,44.1,43.5,29.78,South,190,1.0,3.0,98,0.00,,,0.01,meteohub,2013-01-30 02:47:00,
2013-01-29 21:52:00,45.5,45.0,29.78,SW,229,3.0,3.0,98,0.00,,,0.01,meteohub,2013-01-30 02:52:00,
2013-01-29 21:57:00,45.9,45.3,29.78,SW,234,1.0,5.0,98,0.00,,,0.01,meteohub,2013-01-30 02:57:00,
2013-01-29 22:02:00,46.0,45.5,29.77,South,190,4.0,5.0,98,0.00,,,0.01,meteohub,2013-01-30 03:02:00,
2013-01-29 22:07:00,47.1,46.9,29.76,SSW,194,3.0,5.0,99,0.00,,,0.01,meteohub,2013-01-30 03:07:00,
2013-01-29 22:12:00,47.1,46.9,29.75,South,190,3.0,5.0,99,0.00,,,0.01,meteohub,2013-01-30 03:12:00,
2013-01-29 22:17:00,47.5,46.9,29.76,SSW,212,1.0,6.0,98,0.00,,,0.01,meteohub,2013-01-30 03:17:00,
2013-01-29 22:22:00,47.5,46.9,29.76,SW,221,1.0,6.0,98,0.00,,,0.01,meteohub,2013-01-30 03:22:00,
2013-01-29 22:27:00,47.7,47.1,29.75,WSW,248,0.0,6.0,98,0.00,,,0.01,meteohub,2013-01-30 03:27:00,
2013-01-29 22:32:00,47.3,47.1,29.75,WSW,248,0.0,6.0,99,0.00,,,0.01,meteohub,2013-01-30 03:32:00,
2013-01-29 22:37:00,46.8,46.2,29.75,SW,234,0.0,6.0,98,0.00,,,0.01,meteohub,2013-01-30 03:37:00,
2013-01-29 22:42:00,46.6,46.0,29.75,SSW,197,1.0,6.0,98,0.00,,,0.01,meteohub,2013-01-30 03:42:00,
2013-01-29 22:47:00,47.1,46.6,29.74,SW,218,2.0,8.0,98,0.00,,,0.01,meteohub,2013-01-30 03:47:00,
2013-01-29 22:52:00,48.6,48.4,29.74,SW,233,2.0,8.0,99,0.00,,,0.01,meteohub,2013-01-30 03:52:00,
2013-01-29 22:57:00,49.5,48.9,29.74,SW,232,1.0,8.0,98,0.00,,,0.01,meteohub,2013-01-30 03:57:00,
2013-01-29 23:02:00,49.6,49.5,29.74,West,267,1.0,8.0,99,0.00,,,0.01,meteohub,2013-01-30 04:02:00,
2013-01-29 23:07:00,49.5,49.3,29.74,WSW,248,1.0,9.0,99,0.00,,,0.01,meteohub,2013-01-30 04:07:00,
2013-01-29 23:12:00,49.8,49.5,29.74,West,268,4.0,9.0,99,0.00,,,0.01,meteohub,2013-01-30 04:12:00,
2013-01-29 23:17:00,50.2,49.8,29.73,SW,214,2.0,9.0,99,0.00,,,0.01,meteohub,2013-01-30 04:17:00,
2013-01-29 23:23:00,50.0,49.6,29.73,SSW,211,1.0,9.0,99,0.00,,,0.01,meteohub,2013-01-30 04:23:00,
2013-01-29 23:28:00,50.0,49.6,29.73,SW,215,4.0,8.0,99,0.00,,,0.01,meteohub,2013-01-30 04:28:00,
2013-01-29 23:33:00,50.0,49.6,29.72,SSW,205,4.0,8.0,99,0.00,,,0.01,meteohub,2013-01-30 04:33:00,
2013-01-29 23:38:00,50.9,50.5,29.71,South,190,3.0,8.0,99,0.00,,,0.01,meteohub,2013-01-30 04:38:00,
2013-01-29 23:44:00,52.0,51.6,29.71,SSW,202,4.0,8.0,99,0.00,,,0.01,meteohub,2013-01-30 04:44:00,
2013-01-29 23:49:00,52.7,52.2,29.71,SW,219,8.0,12.0,98,0.00,,,0.01,meteohub,2013-01-30 04:49:00,
2013-01-29 23:54:00,53.4,52.3,29.70,SSW,207,6.0,12.0,96,0.00,,,0.01,meteohub,2013-01-30 04:54:00,